Time;durP1;ratioP1;P1;durP2;ratioP2;P2;SDS_P1;SDS_P2;PMS_P1;PMS_P2;Temp;Humidity;BMP_temperature;BMP_pressure;BME280_temperature;BME280_humidity;BME280_pressure;Samples;Min_cycle;Max_cycle;Signal;HPM_P1;HPM_P2
2022/11/04 00:01:43;;;;;;;9.10;7.43;;;11.20;99.90;;;;;;4985167;28;20073;-78
2022/11/04 00:04:10;;;;;;;7.93;7.10;;;11.30;99.90;;;;;;4987660;28;20042;-78
2022/11/04 00:06:36;;;;;;;7.45;5.57;;;11.20;99.90;;;;;;4989194;28;20057;-78
2022/11/04 00:09:04;;;;;;;5.30;4.15;;;11.20;99.90;;;;;;4985731;28;20049;-79
2022/11/04 00:14:15;;;;;;;3.10;2.80;;;11.10;99.90;;;;;;4988883;28;20051;-78
2022/11/04 00:19:26;;;;;;;2.55;2.22;;;11.00;99.90;;;;;;4988067;28;20050;-79
2022/11/04 00:30:01;;;;;;;2.10;1.80;;;10.90;99.90;;;;;;4987051;28;20345;-79
2022/11/04 00:35:11;;;;;;;1.50;1.40;;;10.70;99.90;;;;;;4975641;28;20057;-78
2022/11/04 00:37:42;;;;;;;2.95;1.27;;;10.70;99.90;;;;;;4978156;28;20588;-79
2022/11/04 00:40:10;;;;;;;1.77;1.13;;;10.70;99.90;;;;;;4989342;28;20060;-79
2022/11/04 00:42:35;;;;;;;1.88;1.25;;;10.60;99.90;;;;;;4987400;28;20053;-79
2022/11/04 00:45:01;;;;;;;0.82;0.82;;;10.60;99.90;;;;;;4987652;28;20413;-79
2022/11/04 00:47:27;;;;;;;1.00;0.90;;;10.60;99.90;;;;;;4987207;28;20121;-79
2022/11/04 00:49:52;;;;;;;1.20;0.77;;;10.60;99.90;;;;;;4985540;28;20157;-79
2022/11/04 00:52:18;;;;;;;1.25;0.60;;;10.50;99.90;;;;;;4981959;28;20754;-79
2022/11/04 00:54:44;;;;;;;0.73;0.63;;;10.50;99.90;;;;;;4989107;28;20050;-78
2022/11/04 00:57:13;;;;;;;1.42;0.65;;;10.50;99.90;;;;;;4985890;28;20049;-79
2022/11/04 00:59:39;;;;;;;1.45;0.65;;;10.50;99.90;;;;;;4982702;28;20069;-79
2022/11/04 01:02:08;;;;;;;1.08;0.50;;;10.50;99.90;;;;;;4985166;28;20042;-78
2022/11/04 01:04:33;;;;;;;0.82;0.50;;;10.50;99.90;;;;;;4988170;28;20081;-79
2022/11/04 01:07:00;;;;;;;1.02;0.40;;;10.40;99.90;;;;;;4975064;28;20039;-79
2022/11/04 01:09:25;;;;;;;1.05;0.50;;;10.40;99.90;;;;;;4989311;28;20057;-78
2022/11/04 01:11:51;;;;;;;1.30;0.47;;;10.50;99.90;;;;;;4991739;28;20504;-79
2022/11/04 01:14:17;;;;;;;2.15;0.55;;;10.50;99.90;;;;;;4991119;28;20057;-79
2022/11/04 01:16:43;;;;;;;2.08;0.43;;;10.40;99.90;;;;;;4990928;28;20038;-79
2022/11/04 01:19:09;;;;;;;1.35;0.60;;;10.40;99.90;;;;;;4973489;28;20100;-79
2022/11/04 01:21:35;;;;;;;0.93;0.68;;;10.40;99.90;;;;;;4973114;28;20085;-78
2022/11/04 01:24:01;;;;;;;2.55;0.65;;;11.10;99.90;;;;;;4990575;28;20086;-79
2022/11/04 01:26:28;;;;;;;2.03;0.90;;;10.40;99.90;;;;;;4992384;28;20038;-79
2022/11/04 01:28:55;;;;;;;1.48;0.90;;;10.40;99.90;;;;;;4988455;28;20050;-79
2022/11/04 01:31:26;;;;;;;1.35;0.70;;;10.40;99.90;;;;;;4974066;28;20073;-79
2022/11/04 01:33:52;;;;;;;1.95;1.00;;;10.50;99.90;;;;;;4991730;28;20097;-79
2022/11/04 01:36:19;;;;;;;2.15;1.00;;;10.40;99.90;;;;;;4991191;28;20046;-78
2022/11/04 01:38:44;;;;;;;2.95;1.08;;;10.50;99.90;;;;;;4990777;28;20104;-78
2022/11/04 01:41:25;;;;;;;1.35;0.95;;;10.50;99.90;;;;;;4987078;28;20505;-78
2022/11/04 01:44:03;;;;;;;3.08;0.88;;;10.50;99.90;;;;;;4987465;28;20408;-79
2022/11/04 01:46:48;;;;;;;2.08;0.82;;;10.50;99.90;;;;;;4990203;28;20129;-78
2022/11/04 01:49:26;;;;;;;2.05;0.90;;;10.50;99.90;;;;;;4973501;28;20038;-79
2022/11/04 01:52:03;;;;;;;2.78;0.80;;;10.50;99.90;;;;;;4973011;28;20050;-79
2022/11/04 01:54:29;;;;;;;1.88;0.82;;;10.50;99.90;;;;;;4974795;28;20046;-79
2022/11/04 01:56:56;;;;;;;2.95;0.80;;;10.50;99.90;;;;;;4987800;28;20477;-79
2022/11/04 01:59:31;;;;;;;1.67;0.57;;;10.50;99.90;;;;;;4980751;28;20050;-79
2022/11/04 02:01:57;;;;;;;1.13;0.68;;;10.50;99.90;;;;;;4989426;28;20073;-79
2022/11/04 02:04:25;;;;;;;1.92;0.60;;;10.50;99.90;;;;;;5015440;28;20046;-79
2022/11/04 02:07:01;;;;;;;0.85;0.60;;;10.50;99.90;;;;;;4985311;28;20050;-79
2022/11/04 02:09:31;;;;;;;1.00;0.60;;;10.40;99.90;;;;;;4989763;28;20034;-79
2022/11/04 02:14:42;;;;;;;0.60;0.60;;;10.40;99.90;;;;;;4979415;28;20046;-79
2022/11/04 02:17:31;;;;;;;3.25;0.60;;;10.40;99.90;;;;;;4991245;28;20077;-79
2022/11/04 02:20:22;;;;;;;1.77;0.70;;;10.30;99.90;;;;;;4989928;28;20084;-78
2022/11/04 02:23:07;;;;;;;3.45;0.75;;;10.40;99.90;;;;;;4975115;28;20145;-79
2022/11/04 02:25:59;;;;;;;2.30;0.85;;;10.30;99.90;;;;;;4988285;28;20051;-79
2022/11/04 02:28:58;;;;;;;2.83;0.73;;;10.30;99.90;;;;;;4989726;28;20137;-78
2022/11/04 02:31:38;;;;;;;2.63;1.00;;;10.40;99.90;;;;;;4989059;28;20050;-79
2022/11/04 02:34:34;;;;;;;1.95;0.70;;;10.40;99.90;;;;;;4979234;28;20046;-79
2022/11/04 02:37:17;;;;;;;1.77;0.60;;;10.40;99.90;;;;;;4989890;28;20049;-78
2022/11/04 02:39:48;;;;;;;3.13;0.68;;;10.30;99.90;;;;;;4976473;28;20104;-78
2022/11/04 02:42:24;;;;;;;0.95;0.57;;;10.30;99.90;;;;;;4989139;28;20132;-79
2022/11/04 02:45:09;;;;;;;1.55;0.57;;;10.30;99.90;;;;;;4990706;28;20061;-78
2022/11/04 02:47:37;;;;;;;0.60;0.47;;;10.30;99.90;;;;;;4985967;28;20049;-79
2022/11/04 02:50:22;;;;;;;2.92;0.70;;;10.30;99.90;;;;;;4988759;28;20081;-79
2022/11/04 02:53:06;;;;;;;2.00;0.82;;;10.30;99.90;;;;;;4972293;28;20117;-78
2022/11/04 02:55:41;;;;;;;3.42;1.48;;;10.40;99.90;;;;;;4990938;28;20517;-79
2022/11/04 02:58:26;;;;;;;3.45;1.60;;;10.30;99.90;;;;;;4988256;28;20097;-78
2022/11/04 03:00:52;;;;;;;4.30;2.10;;;10.30;99.90;;;;;;4987504;28;20042;-79
2022/11/04 03:03:24;;;;;;;3.67;2.30;;;10.40;99.90;;;;;;4990131;28;20112;-79
2022/11/04 03:05:53;;;;;;;2.42;2.22;;;10.40;99.90;;;;;;4985820;28;20046;-79
2022/11/04 03:08:30;;;;;;;6.85;1.90;;;10.40;99.90;;;;;;4981172;28;20129;-79
2022/11/04 03:11:05;;;;;;;2.85;1.40;;;10.30;99.90;;;;;;4988660;28;20050;-78
2022/11/04 03:13:37;;;;;;;2.38;1.30;;;10.30;99.90;;;;;;4988303;28;20046;-79
2022/11/04 03:16:09;;;;;;;1.95;1.48;;;10.30;99.90;;;;;;4989081;28;20061;-79
2022/11/04 03:19:00;;;;;;;4.18;1.70;;;10.20;99.90;;;;;;4971566;28;20156;-79
2022/11/04 03:21:27;;;;;;;1.58;1.38;;;10.20;99.90;;;;;;4963181;28;20055;-78
2022/11/04 03:23:54;;;;;;;2.65;1.33;;;10.20;99.90;;;;;;4989711;28;20523;-79
2022/11/04 03:26:45;;;;;;;2.05;1.63;;;10.20;99.90;;;;;;4988937;28;20070;-78
2022/11/04 03:29:18;;;;;;;2.17;1.63;;;10.20;99.90;;;;;;4989776;28;20086;-79
2022/11/04 03:31:46;;;;;;;;;;;10.20;99.90;;;;;;4986864;28;20054;-79
2022/11/04 03:34:12;;;;;;;2.35;1.88;;;10.20;99.90;;;;;;4980498;28;20013;-79
2022/11/04 03:36:38;;;;;;;1.85;1.50;;;10.20;99.90;;;;;;4987155;28;20062;-79
2022/11/04 03:39:03;;;;;;;2.60;1.48;;;10.20;99.90;;;;;;4989480;28;20061;-79
2022/11/04 03:41:43;;;;;;;2.55;1.38;;;10.10;99.90;;;;;;4988027;28;20074;-78
2022/11/04 03:44:09;;;;;;;4.07;1.50;;;10.10;99.90;;;;;;4974198;28;20046;-79
2022/11/04 03:46:35;;;;;;;2.92;1.08;;;10.10;99.90;;;;;;4987913;28;20054;-79
2022/11/04 03:49:01;;;;;;;1.77;0.70;;;10.10;99.90;;;;;;4986153;28;20062;-79
2022/11/04 03:51:27;;;;;;;2.30;0.70;;;10.00;99.90;;;;;;4988786;28;20444;-79
2022/11/04 03:53:53;;;;;;;0.90;0.65;;;10.00;99.90;;;;;;4988455;28;20042;-78
2022/11/04 03:56:56;;;;;;;2.03;0.50;;;10.00;99.90;;;;;;4987202;28;20042;-79
2022/11/04 03:59:44;;;;;;;1.17;0.60;;;9.90;99.90;;;;;;4976615;28;20039;-79
2022/11/04 04:02:19;;;;;;;0.40;0.40;;;9.90;99.90;;;;;;4975131;28;20093;-79
2022/11/04 04:05:08;;;;;;;1.17;0.60;;;9.80;99.90;;;;;;4987168;28;20046;-79
2022/11/04 04:07:38;;;;;;;0.80;0.45;;;9.80;99.90;;;;;;4987230;28;20046;-79
2022/11/04 04:13:06;;;;;;;1.30;0.80;;;9.80;99.90;;;;;;4987179;28;20161;-79
2022/11/04 04:16:04;;;;;;;1.50;0.50;;;9.70;99.90;;;;;;4987641;28;20385;-78
2022/11/04 04:18:41;;;;;;;1.48;0.50;;;9.70;99.90;;;;;;4988167;28;20039;-79
2022/11/04 04:21:12;;;;;;;1.23;0.57;;;9.80;99.90;;;;;;4994451;28;20141;-78
2022/11/04 04:29:15;;;;;;;1.90;0.85;;;10.10;99.90;;;;;;4988684;28;20401;-79
2022/11/04 04:31:49;;;;;;;2.33;0.82;;;9.80;99.90;;;;;;4985733;28;20129;-79
2022/11/04 04:34:21;;;;;;;3.03;1.10;;;9.80;99.90;;;;;;4987799;28;20043;-79
2022/11/04 04:37:15;;;;;;;2.60;0.80;;;9.80;99.90;;;;;;4985312;28;20393;-79
2022/11/04 04:45:28;;;;;;;2.22;0.80;;;9.80;99.90;;;;;;4988646;28;20046;-79
2022/11/04 04:47:53;;;;;;;0.70;0.65;;;9.80;99.90;;;;;;4987513;28;20042;-79
2022/11/04 04:50:20;;;;;;;0.70;0.60;;;9.80;99.90;;;;;;4988520;28;20065;-79
2022/11/04 04:52:52;;;;;;;1.15;0.70;;;9.70;99.90;;;;;;4986485;28;20054;-78
2022/11/04 04:55:18;;;;;;;2.05;0.90;;;9.80;99.90;;;;;;4987055;28;20050;-80
2022/11/04 04:57:43;;;;;;;1.20;0.60;;;9.80;99.90;;;;;;4987411;28;20053;-78
2022/11/04 05:00:14;;;;;;;2.80;0.57;;;9.80;99.90;;;;;;4985595;28;20085;-79
2022/11/04 05:02:39;;;;;;;1.13;0.55;;;9.70;99.90;;;;;;4987855;28;20093;-79
2022/11/04 05:05:06;;;;;;;2.72;0.77;;;9.70;99.90;;;;;;4987660;28;20038;-79
2022/11/04 05:07:31;;;;;;;1.10;0.50;;;9.60;99.90;;;;;;4988424;28;20733;-79
2022/11/04 05:09:57;;;;;;;1.95;0.60;;;9.60;99.90;;;;;;4986342;28;20082;-79
2022/11/04 05:12:22;;;;;;;0.50;0.40;;;9.60;99.90;;;;;;4985564;28;20382;-79
2022/11/04 05:14:48;;;;;;;1.73;0.70;;;9.60;99.90;;;;;;4986617;28;20061;-78
2022/11/04 05:17:14;;;;;;;1.02;0.40;;;9.50;99.90;;;;;;4987648;28;20050;-79
2022/11/04 05:19:40;;;;;;;2.40;0.57;;;9.50;99.90;;;;;;4986224;28;20083;-79
2022/11/04 05:22:05;;;;;;;1.02;0.50;;;9.50;99.90;;;;;;4988437;28;20130;-79
2022/11/04 05:24:31;;;;;;;1.98;0.60;;;9.50;99.90;;;;;;4988220;28;20058;-79
2022/11/04 05:26:56;;;;;;;1.08;0.40;;;9.60;99.90;;;;;;4988412;28;20129;-79
2022/11/04 05:29:22;;;;;;;2.25;0.50;;;9.50;99.90;;;;;;4986445;28;20065;-78
2022/11/04 05:31:48;;;;;;;1.17;0.60;;;9.50;99.90;;;;;;4975054;28;20500;-78
2022/11/04 05:34:13;;;;;;;0.52;0.47;;;9.60;99.90;;;;;;4976891;28;20061;-79
2022/11/04 05:36:39;;;;;;;1.40;0.40;;;9.50;99.90;;;;;;4986649;28;20057;-79
2022/11/04 05:39:05;;;;;;;0.32;0.30;;;9.50;99.90;;;;;;4985684;28;20357;-78
2022/11/04 05:41:31;;;;;;;1.05;0.60;;;9.40;99.90;;;;;;4985148;28;20420;-79
2022/11/04 05:44:01;;;;;;;2.97;0.60;;;9.40;99.90;;;;;;4987980;28;20062;-79
2022/11/04 05:46:27;;;;;;;1.20;0.60;;;9.30;99.90;;;;;;4986064;28;20050;-79
2022/11/04 05:48:54;;;;;;;0.82;0.43;;;9.20;99.90;;;;;;4986614;28;20085;-80
2022/11/04 05:51:22;;;;;;;1.10;0.50;;;9.20;99.90;;;;;;4987928;28;20327;-79
2022/11/04 05:53:48;;;;;;;1.23;0.50;;;9.10;99.90;;;;;;4968372;28;20888;-79
2022/11/04 05:56:14;;;;;;;1.33;0.60;;;9.10;99.90;;;;;;4987339;28;20133;-79
2022/11/04 05:58:39;;;;;;;1.45;0.57;;;9.10;99.90;;;;;;4989391;28;20050;-79
2022/11/04 06:01:24;;;;;;;1.33;0.50;;;9.10;99.90;;;;;;4989852;28;20054;-79
2022/11/04 06:03:51;;;;;;;1.13;0.70;;;9.00;99.90;;;;;;4974553;28;20118;-80
2022/11/04 06:06:16;;;;;;;3.28;0.73;;;9.10;99.90;;;;;;4988997;28;20046;-78
2022/11/04 06:08:42;;;;;;;2.00;0.60;;;9.00;99.90;;;;;;4991336;28;20044;-79
2022/11/04 06:11:07;;;;;;;2.35;0.80;;;9.00;99.90;;;;;;4988721;28;20042;-78
2022/11/04 06:13:33;;;;;;;0.60;0.60;;;9.00;99.90;;;;;;4989869;28;20096;-78
2022/11/04 06:15:59;;;;;;;1.05;0.65;;;9.00;99.90;;;;;;4989237;28;20047;-77
2022/11/04 06:18:24;;;;;;;1.65;0.55;;;9.00;99.90;;;;;;4989544;28;20046;-78
2022/11/04 06:21:04;;;;;;;2.58;0.93;;;9.00;99.90;;;;;;4989419;28;20057;-78
2022/11/04 06:23:30;;;;;;;1.08;0.70;;;9.00;99.90;;;;;;4984796;28;20181;-78
2022/11/04 06:25:55;;;;;;;1.73;0.70;;;8.90;99.90;;;;;;4988109;28;20505;-79
2022/11/04 06:28:21;;;;;;;4.10;0.60;;;8.90;99.90;;;;;;4990531;28;20049;-79
2022/11/04 06:30:46;;;;;;;1.98;0.75;;;8.90;99.90;;;;;;4989148;28;20038;-79
2022/11/04 06:33:12;;;;;;;1.67;0.90;;;8.80;99.90;;;;;;4991384;28;20046;-80
2022/11/04 06:35:37;;;;;;;2.05;0.90;;;8.70;99.90;;;;;;4990422;28;20436;-79
2022/11/04 06:38:03;;;;;;;9.57;1.95;;;8.60;99.90;;;;;;4990772;28;20054;-79
2022/11/04 06:40:29;;;;;;;4.30;1.55;;;8.60;99.90;;;;;;4964253;28;20050;-78
2022/11/04 06:42:55;;;;;;;3.28;1.60;;;8.50;99.90;;;;;;4997842;28;20053;-79
2022/11/04 06:45:21;;;;;;;2.22;1.10;;;8.50;99.90;;;;;;4990080;28;20042;-79
2022/11/04 06:47:46;;;;;;;2.90;1.30;;;8.40;99.90;;;;;;4972544;28;20038;-78
2022/11/04 06:50:13;;;;;;;4.45;1.30;;;8.40;99.90;;;;;;4981133;28;20061;-79
2022/11/04 06:52:39;;;;;;;1.92;1.30;;;8.70;99.90;;;;;;4990813;28;20065;-79
2022/11/04 06:55:06;;;;;;;2.15;1.05;;;8.30;99.90;;;;;;4990719;28;20096;-78
2022/11/04 06:57:31;;;;;;;3.45;1.17;;;8.30;99.90;;;;;;4989186;28;20455;-79
2022/11/04 06:59:57;;;;;;;3.42;1.23;;;8.20;99.90;;;;;;4989279;28;20050;-78
2022/11/04 07:02:22;;;;;;;1.45;0.82;;;8.20;99.90;;;;;;4990113;28;20093;-78
2022/11/04 07:04:48;;;;;;;1.02;0.90;;;8.20;99.90;;;;;;4988296;28;20053;-79
2022/11/04 07:07:13;;;;;;;3.20;0.90;;;8.30;99.90;;;;;;4974633;28;20096;-78
2022/11/04 07:09:39;;;;;;;2.92;0.93;;;8.30;99.90;;;;;;4990644;28;20054;-78
2022/11/04 07:12:05;;;;;;;3.15;0.60;;;8.30;99.90;;;;;;4989371;28;20468;-78
2022/11/04 07:14:30;;;;;;;1.88;1.20;;;8.30;99.90;;;;;;4989624;28;20409;-76
2022/11/04 07:16:56;;;;;;;2.15;0.80;;;8.30;99.90;;;;;;4988704;28;20042;-78
2022/11/04 07:19:21;;;;;;;0.70;0.70;;;8.30;99.90;;;;;;4987580;28;20555;-77
2022/11/04 07:21:47;;;;;;;4.68;0.90;;;8.20;99.90;;;;;;4990008;28;20416;-78
2022/11/04 07:24:12;;;;;;;1.60;0.77;;;8.20;99.90;;;;;;4977631;28;20066;-78
2022/11/04 07:26:38;;;;;;;2.65;0.80;;;;;;;;;;4985550;28;20045;-77
2022/11/04 07:29:31;;;;;;;5.93;1.05;;;;;;;;;;4989308;28;20058;-77
2022/11/04 07:32:27;;;;;;;2.20;1.05;;;;;;;;;;4962329;28;20078;-77
2022/11/04 07:35:11;;;;;;;2.05;1.10;;;;;;;;;;4989391;28;20129;-78
2022/11/04 07:37:55;;;;;;;2.35;1.10;;;;;;;;;;4990376;28;20061;-77
2022/11/04 07:40:41;;;;;;;2.20;0.95;;;;;;;;;;4989621;28;20492;-78
2022/11/04 07:43:23;;;;;;;3.47;1.58;;;;;;;;;;4988770;28;20046;-77
2022/11/04 07:46:13;;;;;;;4.60;1.40;;;;;;;;;;4989907;28;20046;-77
2022/11/04 07:48:55;;;;;;;2.17;1.20;;;;;;;;;;4989340;28;20050;-77
2022/11/04 07:51:37;;;;;;;2.10;1.00;;;;;;;;;;4989327;28;20042;-78
2022/11/04 07:54:22;;;;;;;6.22;2.45;;;;;;;;;;4988682;28;20065;-77
2022/11/04 07:57:04;;;;;;;2.88;1.52;;;;;;;;;;4986668;28;20046;-78
2022/11/04 07:59:30;;;;;;;2.60;1.60;;;;;;;;;;4981613;28;20039;-78
2022/11/04 08:01:56;;;;;;;3.28;1.85;;;;;;;;;;4970311;28;20057;-78
2022/11/04 08:04:22;;;;;;;3.42;1.55;;;;;;;;;;4970334;28;20043;-77
2022/11/04 08:06:48;;;;;;;6.13;1.88;;;;;;;;;;4985021;28;20046;-78
2022/11/04 08:09:15;;;;;;;4.05;1.52;;;;;;;;;;4989978;28;20046;-77
2022/11/04 08:11:41;;;;;;;2.67;1.80;;;;;;;;;;4989202;28;21030;-77
2022/11/04 08:14:07;;;;;;;3.75;1.80;;;;;;;;;;4989809;28;20086;-78
2022/11/04 08:16:33;;;;;;;4.30;2.20;;;;;;;;;;4981264;28;20472;-78
2022/11/04 08:19:01;;;;;;;3.75;1.83;;;;;;;;;;4969548;28;20051;-78
2022/11/04 08:21:27;;;;;;;2.53;1.80;;;;;;;;;;4968594;28;20050;-78
2022/11/04 08:23:53;;;;;;;4.05;2.03;;;;;;;;;;4970197;28;20153;-78
2022/11/04 08:26:20;;;;;;;4.00;2.00;;;;;;;;;;4969510;28;20096;-78
2022/11/04 08:28:46;;;;;;;3.03;2.17;;;;;;;;;;4969482;28;20500;-77
2022/11/04 08:31:24;;;;;;;4.13;2.17;;;;;;;;;;4968879;28;20069;-78
2022/11/04 08:33:50;;;;;;;3.30;2.15;;;;;;;;;;4977607;28;20077;-78
2022/11/04 08:36:18;;;;;;;3.67;2.42;;;;;;;;;;4986667;28;20066;-78
2022/11/04 08:38:44;;;;;;;3.45;2.50;;;;;;;;;;4989104;28;20134;-78
2022/11/04 08:41:12;;;;;;;3.30;2.30;;;;;;;;;;4989151;28;20457;-78
2022/11/04 08:43:38;;;;;;;3.85;2.55;;;;;;;;;;4988691;28;20042;-78
2022/11/04 08:46:06;;;;;;;4.22;2.53;;;;;;;;;;4988871;28;20145;-78
2022/11/04 08:48:33;;;;;;;2.92;2.10;;;;;;;;;;4988902;28;20112;-78
2022/11/04 08:50:59;;;;;;;4.40;2.20;;;;;;;;;;4975768;28;20062;-78
2022/11/04 08:53:25;;;;;;;3.72;2.15;;;;;;;;;;4969771;28;20149;-78
2022/11/04 08:55:51;;;;;;;2.47;1.95;;;;;;;;;;4968380;28;20050;-78
2022/11/04 08:58:17;;;;;;;3.78;1.95;;;;;;;;;;4968132;28;20055;-78
2022/11/04 09:00:43;;;;;;;2.70;2.30;;;;;;;;;;4968042;28;20054;-78
2022/11/04 09:03:09;;;;;;;5.28;2.95;;;;;;;;;;4967985;28;20047;-78
2022/11/04 09:05:43;;;;;;;4.78;2.83;;;10.10;99.90;;;;;;4952228;28;20054;-78
2022/11/04 09:08:14;;;;;;;5.88;3.35;;;10.10;99.90;;;;;;4977523;28;20082;-78
2022/11/04 09:10:42;;;;;;;9.13;4.13;;;10.20;99.90;;;;;;4971067;28;20046;-78
2022/11/04 09:13:10;;;;;;;5.53;4.20;;;10.20;99.90;;;;;;4986626;28;20054;-78
2022/11/04 09:15:35;;;;;;;8.55;4.82;;;10.20;99.90;;;;;;4987714;28;20125;-78
2022/11/04 09:18:01;;;;;;;6.70;4.63;;;10.30;99.90;;;;;;4982410;28;20121;-78
2022/11/04 09:20:27;;;;;;;7.25;5.88;;;10.30;99.90;;;;;;4983912;28;20154;-78
2022/11/04 09:22:55;;;;;;;9.45;5.75;;;10.40;99.90;;;;;;4978792;28;20096;-78
2022/11/04 09:25:20;;;;;;;7.45;5.68;;;10.40;99.90;;;;;;4993422;28;20130;-78
2022/11/04 09:27:46;;;;;;;9.52;5.97;;;10.40;99.90;;;;;;4984118;28;20148;-77
2022/11/04 09:30:12;;;;;;;10.70;6.18;;;10.40;99.90;;;;;;4990596;28;20050;-78
2022/11/04 09:32:37;;;;;;;8.00;6.10;;;10.40;99.90;;;;;;4990828;28;20537;-78
2022/11/04 09:35:04;;;;;;;9.07;6.75;;;10.50;99.90;;;;;;4992471;28;20050;-78
2022/11/04 09:37:32;;;;;;;9.82;7.03;;;10.70;99.90;;;;;;4990519;28;20057;-78
2022/11/04 09:39:57;;;;;;;11.82;7.32;;;10.80;99.90;;;;;;4988971;28;20065;-78
2022/11/04 09:42:35;;;;;;;9.10;6.20;;;11.00;99.90;;;;;;4989785;28;20086;-78
2022/11/04 09:45:28;;;;;;;9.07;6.93;;;11.20;99.90;;;;;;4983147;28;20054;-78
2022/11/04 09:48:03;;;;;;;;;;;11.30;99.90;;;;;;4972436;28;20682;-79
2022/11/04 09:50:35;;;;;;;9.60;7.38;;;11.30;99.90;;;;;;4989994;28;19948;-77
2022/11/04 09:53:06;;;;;;;;;;;11.40;99.90;;;;;;4975054;28;20112;-81
2022/11/04 09:55:49;;;;;;;9.73;6.65;;;12.00;99.90;;;;;;4990330;28;19929;-79
2022/11/04 09:58:14;;;;;;;;;;;11.40;99.90;;;;;;4991142;28;20273;-79
2022/11/04 10:00:46;;;;;;;8.88;7.30;;;11.40;99.90;;;;;;4990895;28;20411;-80
2022/11/04 10:03:29;;;;;;;8.70;7.35;;;11.50;99.90;;;;;;4989250;28;20053;-79
2022/11/04 10:05:58;;;;;;;9.10;7.20;;;11.70;99.90;;;;;;4981066;28;20110;-80
2022/11/04 10:09:02;;;;;;;9.80;7.13;;;11.70;99.90;;;;;;4971714;28;20121;-80
2022/11/04 10:11:41;;;;;;;9.68;6.90;;;11.70;99.90;;;;;;4970450;28;20047;-80
2022/11/04 10:14:53;;;;;;;11.25;8.07;;;11.70;99.90;;;;;;4985274;28;20051;-79
2022/11/04 10:17:36;;;;;;;11.65;7.80;;;11.70;99.90;;;;;;4990285;28;20105;-78
2022/11/04 10:20:44;;;;;;;10.45;8.20;;;11.70;99.90;;;;;;4972595;28;20043;-79
2022/11/04 10:23:30;;;;;;;11.00;7.95;;;11.80;99.90;;;;;;4988074;28;20046;-79
2022/11/04 10:26:18;;;;;;;9.27;8.23;;;11.90;99.90;;;;;;4996668;28;20521;-78
2022/11/04 10:28:53;;;;;;;10.70;9.25;;;11.80;99.90;;;;;;4970487;28;20081;-78
2022/11/04 10:31:19;;;;;;;12.15;9.00;;;11.70;99.90;;;;;;4971123;28;20495;-78
2022/11/04 10:33:51;;;;;;;10.93;8.68;;;11.60;99.90;;;;;;4971617;28;20114;-78
2022/11/04 10:36:17;;;;;;;14.52;9.35;;;11.50;99.90;;;;;;4977274;28;20920;-78
2022/11/04 10:38:55;;;;;;;14.20;9.13;;;11.40;99.90;;;;;;4990074;28;20078;-79
2022/11/04 10:41:34;;;;;;;12.57;9.48;;;11.40;99.90;;;;;;5002794;28;20053;-79
2022/11/04 10:44:11;;;;;;;13.07;9.93;;;11.60;99.90;;;;;;4990491;28;20099;-80
2022/11/04 10:47:04;;;;;;;12.07;10.45;;;11.70;99.90;;;;;;4987383;28;20034;-79
2022/11/04 10:49:58;;;;;;;11.25;9.15;;;11.80;99.90;;;;;;4984392;28;20042;-79
2022/11/04 10:52:23;;;;;;;12.95;8.90;;;11.90;99.90;;;;;;4997282;28;20840;-80
2022/11/04 10:54:49;;;;;;;10.35;8.73;;;11.80;99.90;;;;;;4984358;28;20046;-79
2022/11/04 10:57:33;;;;;;;12.15;9.65;;;11.70;99.90;;;;;;4989351;28;20125;-78
2022/11/04 11:00:02;;;;;;;11.73;9.25;;;11.90;99.90;;;;;;4978026;28;20062;-77
2022/11/04 11:02:36;;;;;;;12.93;8.68;;;12.00;99.90;;;;;;4990829;28;20058;-79
2022/11/04 11:05:22;;;;;;;12.20;9.10;;;12.30;99.90;;;;;;4991048;28;20072;-78
2022/11/04 11:07:51;;;;;;;11.30;8.85;;;12.10;99.90;;;;;;4989715;28;20054;-79
2022/11/04 11:10:31;;;;;;;12.65;9.35;;;12.10;99.90;;;;;;4988955;28;20069;-79
2022/11/04 11:13:03;;;;;;;12.35;9.32;;;12.20;99.90;;;;;;4989070;28;20500;-79
2022/11/04 11:15:31;;;;;;;11.43;8.98;;;;;;;;;;4989528;28;20058;-79
2022/11/04 11:18:14;;;;;;;10.13;8.07;;;12.70;99.90;;;;;;4970159;28;20053;-80
2022/11/04 11:20:42;;;;;;;11.50;8.20;;;12.90;99.90;;;;;;4987284;28;20045;-79
2022/11/04 11:23:38;;;;;;;13.38;8.27;;;13.00;99.90;;;;;;4987987;28;20046;-79
2022/11/04 11:26:07;;;;;;;8.48;7.32;;;13.10;99.90;;;;;;4999202;28;20046;-79
2022/11/04 11:28:36;;;;;;;8.07;5.80;;;13.00;99.90;;;;;;4990354;28;20484;-78
2022/11/04 11:31:10;;;;;;;7.72;5.78;;;13.00;99.90;;;;;;4997091;28;20112;-78
2022/11/04 11:34:00;;;;;;;9.88;5.97;;;13.50;99.90;;;;;;4999107;28;20470;-80
2022/11/04 11:36:30;;;;;;;7.65;5.32;;;13.30;99.90;;;;;;4984479;28;20093;-79
2022/11/04 11:39:05;;;;;;;7.60;5.57;;;13.40;99.90;;;;;;4969369;28;20078;-79
2022/11/04 11:41:47;;;;;;;8.90;5.57;;;13.40;99.90;;;;;;4973754;28;20051;-80
2022/11/04 11:44:43;;;;;;;7.53;5.00;;;13.90;99.90;;;;;;4957100;28;20050;-80
2022/11/04 11:47:24;;;;;;;6.13;4.35;;;13.30;99.90;;;;;;4969002;28;20057;-79
2022/11/04 11:50:14;;;;;;;7.50;3.90;;;13.50;99.90;;;;;;4970825;28;20058;-80
2022/11/04 11:52:40;;;;;;;4.28;3.25;;;13.50;99.90;;;;;;4968662;28;20609;-80
2022/11/04 11:55:35;;;;;;;4.40;2.72;;;13.60;99.90;;;;;;4969316;28;20047;-79
2022/11/04 11:58:14;;;;;;;4.82;2.78;;;13.70;99.90;;;;;;4984330;28;20128;-79
2022/11/04 12:00:51;;;;;;;5.47;3.17;;;13.60;99.90;;;;;;4997943;28;20053;-79
2022/11/04 12:03:47;;;;;;;6.05;3.30;;;13.70;99.90;;;;;;4981389;28;20102;-79
2022/11/04 12:06:41;;;;;;;5.53;3.10;;;13.90;99.90;;;;;;4995762;28;20046;-80
2022/11/04 12:09:35;;;;;;;4.43;3.30;;;14.00;99.90;;;;;;5004362;28;20125;-79
2022/11/04 12:12:07;;;;;;;5.38;3.50;;;14.30;99.90;;;;;;4987516;28;20046;-80
2022/11/04 12:14:36;;;;;;;;;;;14.40;99.90;;;;;;4989032;28;20129;-79
2022/11/04 12:17:27;;;;;;;6.90;3.83;;;14.50;99.90;;;;;;4988364;28;19945;-79
2022/11/04 12:20:17;;;;;;;6.40;3.40;;;14.50;99.90;;;;;;4989804;28;20051;-79
2022/11/04 12:22:58;;;;;;;3.45;1.52;;;15.00;99.90;;;;;;4999966;28;20162;-79
2022/11/04 12:25:37;;;;;;;4.00;1.08;;;14.40;99.90;;;;;;4990840;28;20085;-79
2022/11/04 12:28:05;;;;;;;3.08;0.85;;;14.00;99.90;;;;;;4968490;28;20062;-79
2022/11/04 12:30:39;;;;;;;2.15;0.63;;;13.70;99.90;;;;;;4969016;28;20512;-79
2022/11/04 12:33:21;;;;;;;3.72;1.02;;;13.20;99.90;;;;;;4978531;28;20531;-79
2022/11/04 12:36:01;;;;;;;1.92;1.17;;;13.10;99.90;;;;;;4987198;28;20046;-80
2022/11/04 12:38:35;;;;;;;1.50;0.65;;;12.80;99.90;;;;;;4987832;28;20068;-79
2022/11/04 12:41:25;;;;;;;2.65;0.90;;;12.40;99.90;;;;;;4987109;28;20050;-80
2022/11/04 12:44:12;;;;;;;3.72;1.17;;;12.20;99.90;;;;;;4987678;28;20145;-80
2022/11/04 12:47:08;;;;;;;4.70;1.42;;;12.10;99.90;;;;;;4987949;28;20496;-80
2022/11/04 12:50:05;;;;;;;3.90;1.90;;;13.20;99.90;;;;;;4966628;28;20109;-80
2022/11/04 12:53:01;;;;;;;3.72;1.50;;;11.80;99.90;;;;;;4987751;28;20046;-80
2022/11/04 12:55:35;;;;;;;3.85;1.15;;;11.60;99.90;;;;;;4985823;28;20046;-80
2022/11/04 12:58:28;;;;;;;1.48;0.80;;;11.30;99.90;;;;;;4983744;28;20046;-80
2022/11/04 13:00:56;;;;;;;;;;;11.20;99.90;;;;;;4985842;28;20085;-80
2022/11/04 13:03:45;;;;;;;2.05;0.93;;;10.90;99.90;;;;;;4982488;28;19922;-79
2022/11/04 13:06:32;;;;;;;2.75;0.77;;;11.10;99.90;;;;;;4971726;28;20497;-79
2022/11/04 13:09:16;;;;;;;4.85;0.88;;;10.60;99.90;;;;;;4984327;28;20065;-80
2022/11/04 13:12:04;;;;;;;3.33;1.00;;;10.60;99.90;;;;;;4985383;28;20156;-79
2022/11/04 13:14:38;;;;;;;1.85;0.90;;;10.50;99.90;;;;;;4979731;28;20551;-80
2022/11/04 13:17:09;;;;;;;4.35;1.17;;;10.50;99.90;;;;;;4968970;28;20060;-80
2022/11/04 13:19:51;;;;;;;1.98;0.90;;;10.40;99.90;;;;;;4983999;28;20049;-80
2022/11/04 13:22:29;;;;;;;1.40;0.90;;;10.40;99.90;;;;;;4979542;28;20153;-80
2022/11/04 13:24:58;;;;;;;2.45;1.00;;;10.30;99.90;;;;;;4964406;28;20065;-80
2022/11/04 13:27:43;;;;;;;2.80;1.08;;;10.40;99.90;;;;;;4986269;28;20050;-80
2022/11/04 13:30:28;;;;;;;2.40;1.30;;;10.30;99.90;;;;;;4978781;28;20042;-79
2022/11/04 13:33:00;;;;;;;2.67;0.80;;;10.20;99.90;;;;;;4982908;28;20070;-79
2022/11/04 13:35:39;;;;;;;4.53;1.00;;;10.30;99.90;;;;;;4970693;28;20049;-79
2022/11/04 13:38:11;;;;;;;5.40;1.35;;;10.40;99.90;;;;;;4990936;28;20061;-79
2022/11/04 13:41:15;;;;;;;3.50;0.88;;;10.30;99.90;;;;;;4989270;28;20061;-79
2022/11/04 13:43:49;;;;;;;3.83;0.77;;;10.40;99.90;;;;;;4991000;28;20450;-80
2022/11/04 13:46:20;;;;;;;3.70;1.00;;;10.60;99.90;;;;;;4990743;28;20121;-79
2022/11/04 13:49:05;;;;;;;2.03;1.10;;;10.70;99.90;;;;;;4988006;28;20101;-79
2022/11/04 13:51:45;;;;;;;4.18;1.08;;;10.80;99.90;;;;;;4997723;28;20042;-79
2022/11/04 13:54:26;;;;;;;2.60;1.00;;;10.90;99.90;;;;;;4986786;28;20048;-78
2022/11/04 13:57:04;;;;;;;1.17;0.90;;;10.90;99.90;;;;;;4982514;28;20133;-79
2022/11/04 13:59:30;;;;;;;3.05;1.00;;;10.90;99.90;;;;;;4956379;28;20070;-80
2022/11/04 14:02:23;;;;;;;4.70;1.60;;;10.70;99.90;;;;;;4984489;28;20081;-80
2022/11/04 14:04:48;;;;;;;3.20;0.73;;;10.70;99.90;;;;;;5007771;28;20076;-78
2022/11/04 14:07:16;;;;;;;3.60;1.30;;;;;;;;;;5002065;28;20038;-78
2022/11/04 14:09:42;;;;;;;1.98;0.95;;;;;;;;;;4989429;28;20058;-79